createdAt,value
2017-07-22T00:00:33.226Z,22.10
2017-07-22T00:03:00.174Z,22.10
2017-07-22T00:05:27.097Z,22.00
2017-07-22T00:07:54.073Z,21.80
2017-07-22T00:10:21.420Z,21.90
2017-07-22T00:12:48.369Z,21.90
2017-07-22T00:15:15.318Z,22.00
2017-07-22T00:17:42.201Z,22.10
2017-07-22T00:20:09.093Z,22.20
2017-07-22T00:22:36.058Z,22.40
2017-07-22T00:25:03.009Z,22.40
2017-07-22T00:27:30.353Z,22.40
2017-07-22T00:29:57.303Z,22.40
2017-07-22T00:32:24.249Z,22.40
2017-07-22T00:34:51.196Z,22.30
2017-07-22T00:37:18.337Z,22.30
2017-07-22T00:39:45.293Z,22.40
2017-07-22T00:42:12.181Z,22.40
2017-07-22T00:44:39.194Z,22.40
2017-07-22T00:47:06.474Z,22.40
2017-07-22T00:49:33.493Z,22.40
2017-07-22T00:52:00.432Z,22.30
2017-07-22T00:54:27.384Z,22.30
2017-07-22T00:56:54.327Z,22.30
2017-07-22T00:59:21.207Z,22.20
2017-07-22T01:01:48.125Z,22.10
2017-07-22T01:04:15.009Z,22.10
2017-07-22T01:06:41.888Z,22.10
2017-07-22T01:09:08.857Z,22.20
2017-07-22T01:11:36.215Z,22.20
2017-07-22T01:14:03.162Z,22.20
2017-07-22T01:16:30.498Z,22.00
2017-07-22T01:18:57.466Z,22.00
2017-07-22T01:21:24.355Z,22.00
2017-07-22T01:23:51.353Z,22.00
2017-07-22T01:26:18.309Z,22.10
2017-07-22T01:28:45.653Z,22.00
2017-07-22T01:31:12.569Z,22.00
2017-07-22T01:33:39.466Z,21.90
2017-07-22T01:36:06.789Z,22.00
2017-07-22T01:38:33.745Z,22.00
2017-07-22T01:41:00.630Z,22.00
2017-07-22T01:43:27.555Z,22.00
2017-07-22T01:45:54.834Z,22.00
2017-07-22T01:48:21.717Z,22.00
2017-07-22T01:50:48.642Z,22.00
2017-07-22T01:53:15.526Z,21.90
2017-07-22T01:55:42.410Z,21.90
2017-07-22T01:58:09.329Z,21.70
2017-07-22T02:00:36.720Z,21.00
2017-07-22T02:03:03.598Z,21.00
2017-07-22T02:05:30.572Z,20.80
2017-07-22T02:07:57.929Z,20.30
2017-07-22T02:10:25.292Z,20.10
2017-07-22T02:12:52.646Z,20.10
2017-07-22T02:15:19.993Z,20.10
2017-07-22T02:17:46.937Z,20.10
2017-07-22T02:20:13.865Z,20.10
2017-07-22T02:22:40.935Z,20.10
2017-07-22T02:25:07.818Z,20.10
2017-07-22T02:27:34.831Z,20.10
2017-07-22T02:30:02.115Z,20.40
2017-07-22T02:32:29.022Z,20.40
2017-07-22T02:34:55.968Z,20.80
2017-07-22T02:37:22.913Z,21.00
2017-07-22T02:39:49.793Z,21.20
2017-07-22T02:42:16.709Z,21.40
2017-07-22T02:44:43.654Z,21.50
2017-07-22T02:47:10.606Z,21.50
2017-07-22T02:49:37.545Z,21.60
2017-07-22T02:52:04.438Z,21.70
2017-07-22T02:54:31.320Z,21.70
2017-07-22T02:56:58.284Z,21.60
2017-07-22T02:59:25.166Z,21.70
2017-07-22T03:01:52.058Z,21.70
2017-07-22T03:04:18.969Z,21.80
2017-07-22T03:06:45.867Z,21.80
2017-07-22T03:09:12.927Z,21.80
2017-07-22T03:11:40.208Z,21.80
2017-07-22T03:14:07.118Z,21.80
2017-07-22T03:16:34.065Z,21.80
2017-07-22T03:19:01.417Z,21.90
2017-07-22T03:21:28.366Z,21.90
2017-07-22T03:23:55.314Z,21.90
2017-07-22T03:26:22.252Z,21.90
2017-07-22T03:28:49.209Z,22.00
2017-07-22T03:31:16.148Z,22.00
2017-07-22T03:33:43.048Z,22.00
2017-07-22T03:36:09.937Z,22.00
2017-07-22T03:38:36.860Z,22.00
2017-07-22T03:41:03.791Z,22.00
2017-07-22T03:43:30.733Z,22.00
2017-07-22T03:45:57.678Z,22.10
2017-07-22T03:48:24.573Z,22.20
2017-07-22T03:50:51.478Z,22.20
2017-07-22T03:53:18.828Z,22.10
2017-07-22T03:55:46.185Z,22.10
2017-07-22T03:58:13.537Z,22.10
2017-07-22T04:00:40.422Z,22.10
2017-07-22T04:03:07.370Z,22.10
2017-07-22T04:05:34.253Z,22.10
2017-07-22T04:08:01.150Z,22.00
2017-07-22T04:10:28.170Z,22.00
2017-07-22T04:12:55.123Z,22.00
2017-07-22T04:15:22.464Z,21.90
2017-07-22T04:17:49.395Z,21.90
2017-07-22T04:20:16.324Z,21.90
2017-07-22T04:22:43.250Z,22.00
2017-07-22T04:25:10.253Z,22.00
2017-07-22T04:27:37.141Z,22.00
2017-07-22T04:30:04.994Z,21.90
2017-07-22T04:32:31.921Z,21.90
2017-07-22T04:34:58.873Z,22.00
2017-07-22T04:37:26.201Z,22.00
2017-07-22T04:39:53.170Z,22.00
2017-07-22T04:42:20.551Z,21.90
2017-07-22T04:44:47.854Z,21.90
2017-07-22T04:47:14.825Z,21.90
2017-07-22T04:49:42.177Z,21.80
2017-07-22T04:52:09.129Z,21.80
2017-07-22T04:54:36.490Z,21.70
2017-07-22T04:57:03.837Z,21.80
2017-07-22T04:59:30.786Z,21.80
2017-07-22T05:01:57.728Z,21.90
2017-07-22T05:04:24.672Z,22.00
2017-07-22T05:06:51.625Z,22.00
2017-07-22T05:09:18.972Z,22.10
2017-07-22T05:11:46.061Z,22.10
2017-07-22T05:14:12.981Z,22.00
2017-07-22T05:16:40.271Z,22.20
2017-07-22T05:19:07.270Z,22.20
2017-07-22T05:21:34.221Z,22.30
2017-07-22T05:24:01.170Z,22.30
2017-07-22T05:26:28.114Z,22.30
2017-07-22T05:28:55.060Z,22.20
2017-07-22T05:31:21.949Z,22.30
2017-07-22T05:33:48.865Z,22.40
2017-07-22T05:36:16.149Z,22.40
2017-07-22T05:38:43.068Z,22.40
2017-07-22T05:41:10.414Z,22.40
2017-07-22T05:43:37.766Z,22.40
2017-07-22T05:46:04.909Z,22.40
2017-07-22T05:48:31.793Z,22.40
2017-07-22T05:50:58.691Z,22.50
2017-07-22T05:53:25.657Z,22.50
2017-07-22T05:55:53.009Z,22.70
2017-07-22T05:58:19.958Z,22.70
2017-07-22T06:00:47.253Z,22.60
2017-07-22T06:03:14.152Z,22.60
2017-07-22T06:05:41.074Z,22.70
2017-07-22T06:08:07.969Z,22.60
2017-07-22T06:10:34.993Z,22.60
2017-07-22T06:13:01.937Z,22.70
2017-07-22T06:15:28.889Z,22.60
2017-07-22T06:17:55.838Z,22.70
2017-07-22T06:20:23.194Z,23.10
2017-07-22T06:22:50.542Z,23.20
2017-07-22T06:25:17.495Z,23.20
2017-07-22T06:27:44.373Z,23.40
2017-07-22T06:30:11.281Z,23.50
2017-07-22T06:32:38.221Z,23.70
2017-07-22T06:35:05.173Z,23.70
2017-07-22T06:37:32.138Z,23.70
2017-07-22T06:39:59.430Z,23.90
2017-07-22T06:42:26.417Z,23.90
2017-07-22T06:44:53.345Z,24.00
2017-07-22T06:47:20.329Z,24.10
2017-07-22T06:49:47.610Z,24.30
2017-07-22T06:52:14.521Z,24.30
2017-07-22T06:54:41.869Z,24.20
2017-07-22T06:57:08.821Z,24.20
2017-07-22T06:59:36.196Z,24.30
2017-07-22T07:02:03.229Z,24.30
2017-07-22T07:04:30.592Z,24.10
2017-07-22T07:06:57.933Z,24.10
2017-07-22T07:09:24.890Z,24.10
2017-07-22T07:11:52.233Z,23.90
2017-07-22T07:14:19.175Z,23.90
2017-07-22T07:16:46.130Z,23.90
2017-07-22T07:19:13.018Z,24.10
2017-07-22T07:21:39.933Z,24.30
2017-07-22T07:24:07.320Z,24.40
2017-07-22T07:26:34.218Z,24.40
2017-07-22T07:29:01.151Z,24.50
2017-07-22T07:31:28.119Z,24.70
2017-07-22T07:33:55.060Z,24.70
2017-07-22T07:36:22.005Z,24.80
2017-07-22T07:38:48.952Z,25.00
2017-07-22T07:41:16.053Z,25.20
2017-07-22T07:43:43.012Z,25.20
2017-07-22T07:46:09.965Z,25.30
2017-07-22T07:48:36.843Z,25.40
2017-07-22T07:51:03.853Z,25.40
2017-07-22T07:53:30.753Z,25.50
2017-07-22T07:55:57.641Z,25.60
2017-07-22T07:58:24.573Z,25.60
2017-07-22T08:00:51.537Z,25.60
2017-07-22T08:03:18.482Z,25.80
2017-07-22T08:05:45.397Z,26.00
2017-07-22T08:08:12.276Z,26.20
2017-07-22T08:10:39.221Z,26.30
2017-07-22T08:13:06.176Z,26.20
2017-07-22T08:15:33.118Z,26.20
2017-07-22T08:18:00.057Z,26.20
2017-07-22T08:20:27.006Z,26.10
2017-07-22T08:22:53.958Z,26.20
2017-07-22T08:25:21.286Z,26.10
2017-07-22T08:27:48.295Z,26.10
2017-07-22T08:30:15.301Z,26.00
2017-07-22T08:32:42.234Z,26.00
2017-07-22T08:35:09.197Z,26.00
2017-07-22T08:37:36.145Z,26.00
2017-07-22T08:40:03.073Z,26.00
2017-07-22T08:42:30.049Z,25.90
2017-07-22T08:44:57.390Z,26.00
2017-07-22T08:47:24.309Z,26.00
2017-07-22T08:49:51.265Z,26.00
2017-07-22T08:52:18.218Z,26.10
2017-07-22T08:54:45.187Z,26.10
2017-07-22T08:57:12.522Z,26.30
2017-07-22T08:59:39.465Z,26.30
2017-07-22T09:02:06.413Z,26.50
2017-07-22T09:04:33.371Z,26.10
2017-07-22T09:07:00.712Z,25.60
2017-07-22T09:09:27.661Z,25.60
2017-07-22T09:11:54.621Z,25.80
2017-07-22T09:14:21.897Z,26.00
2017-07-22T09:16:48.805Z,26.00
2017-07-22T09:19:15.753Z,26.00
2017-07-22T09:21:42.706Z,26.00
2017-07-22T09:24:09.633Z,26.10
2017-07-22T09:26:36.534Z,26.30
2017-07-22T09:29:03.466Z,26.50
2017-07-22T09:31:30.425Z,26.60
2017-07-22T09:33:57.309Z,26.80
2017-07-22T09:36:24.218Z,27.10
2017-07-22T09:38:51.161Z,27.30
2017-07-22T09:41:18.221Z,27.30
2017-07-22T09:43:45.574Z,27.40
2017-07-22T09:46:12.950Z,27.40
2017-07-22T09:48:40.274Z,27.50
2017-07-22T09:51:07.172Z,27.50
2017-07-22T09:53:34.070Z,27.60
2017-07-22T09:56:00.988Z,27.70
2017-07-22T09:58:28.276Z,27.70
2017-07-22T10:00:55.212Z,27.70
2017-07-22T10:03:22.116Z,27.90
2017-07-22T10:05:49.001Z,27.40
2017-07-22T10:08:16.007Z,27.10
2017-07-22T10:10:42.952Z,27.10
2017-07-22T10:13:10.004Z,27.30
2017-07-22T10:15:36.890Z,27.50
2017-07-22T10:18:03.793Z,27.40
2017-07-22T10:20:30.737Z,27.60
2017-07-22T10:22:57.685Z,27.60
2017-07-22T10:25:24.987Z,27.80
2017-07-22T10:27:51.921Z,27.80
2017-07-22T10:30:18.805Z,27.70
2017-07-22T10:32:45.702Z,27.60
2017-07-22T10:35:13.133Z,27.70
2017-07-22T10:37:40.082Z,27.70
2017-07-22T10:40:07.042Z,27.80
2017-07-22T10:42:34.430Z,27.80
2017-07-22T10:45:01.329Z,27.80
2017-07-22T10:47:28.277Z,27.80
2017-07-22T10:49:55.193Z,27.60
2017-07-22T10:52:22.089Z,27.70
2017-07-22T10:54:49.390Z,27.70
2017-07-22T10:57:16.281Z,27.70
2017-07-22T10:59:43.626Z,27.50
2017-07-22T11:02:10.579Z,27.50
2017-07-22T11:04:37.463Z,27.40
2017-07-22T11:07:04.466Z,27.40
2017-07-22T11:09:31.418Z,27.40
2017-07-22T11:11:58.745Z,27.40
2017-07-22T11:14:25.631Z,27.40
2017-07-22T11:16:52.965Z,27.30
2017-07-22T11:19:19.905Z,27.30
2017-07-22T11:21:46.861Z,27.10
2017-07-22T11:24:13.805Z,26.90
2017-07-22T11:26:40.765Z,26.70
2017-07-22T11:29:08.080Z,26.40
2017-07-22T11:31:35.054Z,26.40
2017-07-22T11:34:01.946Z,26.40
2017-07-22T11:36:28.861Z,26.70
2017-07-22T11:38:56.201Z,27.30
2017-07-22T11:41:23.149Z,27.30
2017-07-22T11:43:50.094Z,27.40
2017-07-22T11:46:17.041Z,27.40
2017-07-22T11:48:43.933Z,27.70
2017-07-22T11:51:10.876Z,27.90
2017-07-22T11:53:38.026Z,28.10
2017-07-22T11:56:06.722Z,28.20
2017-07-22T11:58:33.765Z,28.00
2017-07-22T12:01:00.918Z,28.00
2017-07-22T12:03:27.919Z,27.90
2017-07-22T12:05:54.866Z,27.80
2017-07-22T12:08:21.857Z,27.80
2017-07-22T12:10:48.735Z,27.90
2017-07-22T12:13:15.762Z,28.00
2017-07-22T12:15:42.798Z,27.80
2017-07-22T12:18:09.681Z,27.80
2017-07-22T12:20:36.562Z,27.80
2017-07-22T12:23:03.477Z,27.70
2017-07-22T12:25:30.400Z,27.50
2017-07-22T12:27:57.677Z,26.90
2017-07-22T12:30:24.590Z,26.90
2017-07-22T12:32:51.536Z,26.70
2017-07-22T12:35:18.421Z,26.50
2017-07-22T12:37:45.335Z,26.30
2017-07-22T12:40:12.275Z,26.30
2017-07-22T12:42:39.165Z,26.40
2017-07-22T12:45:10.501Z,26.50
2017-07-22T12:47:37.394Z,26.50
2017-07-22T12:50:04.277Z,26.60
2017-07-22T12:52:31.620Z,26.60
2017-07-22T12:54:58.513Z,26.60
2017-07-22T12:57:25.505Z,26.80
2017-07-22T12:59:52.388Z,26.90
2017-07-22T13:02:19.398Z,27.00
2017-07-22T13:04:46.345Z,27.20
2017-07-22T13:07:13.294Z,27.50
2017-07-22T13:09:40.185Z,27.90
2017-07-22T13:12:07.185Z,27.90
2017-07-22T13:14:34.144Z,28.00
2017-07-22T13:17:01.488Z,28.00
2017-07-22T13:19:28.411Z,28.00
2017-07-22T13:21:55.378Z,28.10
2017-07-22T13:24:22.327Z,28.10
2017-07-22T13:26:49.253Z,28.00
2017-07-22T13:29:16.221Z,28.10
2017-07-22T13:31:43.166Z,28.20
2017-07-22T13:34:10.089Z,28.30
2017-07-22T13:36:36.974Z,28.50
2017-07-22T13:39:04.325Z,28.50
2017-07-22T13:41:31.642Z,28.40
2017-07-22T13:43:58.616Z,28.40
2017-07-22T13:46:25.569Z,28.20
2017-07-22T13:48:53.173Z,28.10
2017-07-22T13:51:20.064Z,28.10
2017-07-22T13:53:46.941Z,28.10
2017-07-22T13:56:13.858Z,28.10
2017-07-22T13:58:40.767Z,28.10
2017-07-22T14:01:07.760Z,27.90
2017-07-22T14:03:35.112Z,27.60
2017-07-22T14:06:02.102Z,27.60
2017-07-22T14:08:28.985Z,27.40
2017-07-22T14:10:55.913Z,27.30
2017-07-22T14:13:22.793Z,27.20
2017-07-22T14:15:49.745Z,27.20
2017-07-22T14:18:17.054Z,27.40
2017-07-22T14:20:43.959Z,27.40
2017-07-22T14:23:10.889Z,27.30
2017-07-22T14:25:37.793Z,27.30
2017-07-22T14:28:04.737Z,27.50
2017-07-22T14:30:31.729Z,27.80
2017-07-22T14:32:58.701Z,28.10
2017-07-22T14:35:25.723Z,28.40
2017-07-22T14:37:52.721Z,28.60
2017-07-22T14:40:19.673Z,28.80
2017-07-22T14:42:46.634Z,29.00
2017-07-22T14:45:13.983Z,29.40
2017-07-22T14:47:41.256Z,29.50
2017-07-22T14:50:08.173Z,29.50
2017-07-22T14:52:35.168Z,29.50
2017-07-22T14:55:02.080Z,29.60
2017-07-22T14:57:29.424Z,29.60
2017-07-22T14:59:56.345Z,29.60
2017-07-22T15:02:23.363Z,29.60
2017-07-22T15:04:50.265Z,29.50
2017-07-22T15:07:17.209Z,29.40
2017-07-22T15:09:44.164Z,29.20
2017-07-22T15:12:11.513Z,29.00
2017-07-22T15:14:38.457Z,29.00
2017-07-22T15:17:05.369Z,29.20
2017-07-22T15:19:32.252Z,29.40
2017-07-22T15:21:59.605Z,29.50
2017-07-22T15:24:26.575Z,29.50
2017-07-22T15:26:53.493Z,29.50
2017-07-22T15:29:20.422Z,29.40
2017-07-22T15:31:47.361Z,29.30
2017-07-22T15:34:14.238Z,29.40
2017-07-22T15:36:41.228Z,29.40
2017-07-22T15:39:08.138Z,29.40
2017-07-22T15:41:35.482Z,29.30
2017-07-22T15:44:02.361Z,29.30
2017-07-22T15:46:29.273Z,29.50
2017-07-22T15:48:56.198Z,29.70
2017-07-22T15:51:23.165Z,30.00
2017-07-22T15:53:50.045Z,30.20
2017-07-22T15:56:17.057Z,30.50
2017-07-22T15:58:43.943Z,30.60
2017-07-22T16:01:10.957Z,30.60
2017-07-22T16:03:37.898Z,30.60
2017-07-22T16:06:04.945Z,30.60
2017-07-22T16:08:31.942Z,30.50
2017-07-22T16:10:58.837Z,30.50
2017-07-22T16:13:25.785Z,30.50
2017-07-22T16:15:52.779Z,30.40
2017-07-22T16:18:19.728Z,30.30
2017-07-22T16:20:46.603Z,30.30
2017-07-22T16:23:13.573Z,30.50
2017-07-22T16:25:40.634Z,30.80
2017-07-22T16:28:08.285Z,31.50
2017-07-22T16:30:35.178Z,31.50
2017-07-22T16:33:02.073Z,31.80
2017-07-22T16:35:29.017Z,32.30
2017-07-22T16:37:55.933Z,33.00
2017-07-22T16:40:22.913Z,33.50
2017-07-22T16:42:49.857Z,34.10
2017-07-22T16:45:16.805Z,35.10
2017-07-22T16:47:43.733Z,36.10
2017-07-22T16:50:10.618Z,36.90
2017-07-22T16:52:38.000Z,38.80
2017-07-22T16:55:05.048Z,38.80
2017-07-22T16:57:31.953Z,39.70
2017-07-22T16:59:58.893Z,40.40
2017-07-22T17:02:25.805Z,41.10
2017-07-22T17:04:52.786Z,41.50
2017-07-22T17:07:19.737Z,41.50
2017-07-22T17:09:46.621Z,40.70
2017-07-22T17:12:13.534Z,40.00
2017-07-22T17:14:40.905Z,40.30
2017-07-22T17:17:08.243Z,40.80
2017-07-22T17:19:35.521Z,40.90
2017-07-22T17:22:02.437Z,40.90
2017-07-22T17:24:29.381Z,41.30
2017-07-22T17:26:56.266Z,41.60
2017-07-22T17:29:23.275Z,41.60
2017-07-22T17:31:50.157Z,41.70
2017-07-22T17:34:17.109Z,41.80
2017-07-22T17:36:44.112Z,41.20
2017-07-22T17:39:10.995Z,40.60
2017-07-22T17:41:37.909Z,40.30
2017-07-22T17:44:04.861Z,40.00
2017-07-22T17:46:32.213Z,40.00
2017-07-22T17:48:59.561Z,40.00
2017-07-22T17:51:26.461Z,40.00
2017-07-22T17:53:53.346Z,40.10
2017-07-22T17:56:20.710Z,39.60
2017-07-22T17:58:47.589Z,39.60
2017-07-22T18:01:14.497Z,39.60
2017-07-22T18:03:41.821Z,39.40
2017-07-22T18:06:08.797Z,39.40
2017-07-22T18:08:35.745Z,38.40
2017-07-22T18:11:02.662Z,37.50
2017-07-22T18:13:29.554Z,36.50
2017-07-22T18:15:56.865Z,35.60
2017-07-22T18:18:23.841Z,35.60
2017-07-22T18:20:50.785Z,35.10
2017-07-22T18:23:18.045Z,34.30
2017-07-22T18:25:44.928Z,33.50
2017-07-22T18:28:11.816Z,32.60
2017-07-22T18:30:38.777Z,31.60
2017-07-22T18:33:05.689Z,31.10
2017-07-22T18:35:32.673Z,30.60
2017-07-22T18:37:59.613Z,30.20
2017-07-22T18:40:26.506Z,29.80
2017-07-22T18:42:53.385Z,29.50
2017-07-22T18:45:20.294Z,29.30
2017-07-22T18:47:47.197Z,29.20
2017-07-22T18:50:14.145Z,28.90
2017-07-22T18:52:41.090Z,28.80
2017-07-22T18:55:08.033Z,28.70
2017-07-22T18:57:34.990Z,28.60
2017-07-22T19:00:02.269Z,28.40
2017-07-22T19:02:29.189Z,28.40
2017-07-22T19:04:56.541Z,28.10
2017-07-22T19:07:23.481Z,28.10
2017-07-22T19:09:50.374Z,28.00
2017-07-22T19:12:17.281Z,27.80
2017-07-22T19:14:44.575Z,27.50
2017-07-22T19:17:11.488Z,27.50
2017-07-22T19:19:38.828Z,27.30
2017-07-22T19:22:05.781Z,27.30
2017-07-22T19:24:32.685Z,27.10
2017-07-22T19:26:59.668Z,27.00
2017-07-22T19:29:26.625Z,27.00
2017-07-22T19:31:53.562Z,26.90
2017-07-22T19:34:20.446Z,26.80
2017-07-22T19:36:47.377Z,26.70
2017-07-22T19:39:14.653Z,26.60
2017-07-22T19:41:41.869Z,26.60
2017-07-22T19:44:09.221Z,26.40
2017-07-22T19:46:36.170Z,26.40
2017-07-22T19:49:03.481Z,26.50
2017-07-22T19:51:30.466Z,26.50
2017-07-22T19:53:57.414Z,26.50
2017-07-22T19:56:24.357Z,26.50
2017-07-22T19:58:51.236Z,26.40
2017-07-22T20:01:18.248Z,26.40
2017-07-22T20:03:45.174Z,26.20
2017-07-22T20:06:12.145Z,26.10
2017-07-22T20:08:39.094Z,26.00
2017-07-22T20:11:06.037Z,26.00
2017-07-22T20:13:32.989Z,26.00
2017-07-22T20:15:59.874Z,26.00
2017-07-22T20:18:26.781Z,25.90
2017-07-22T20:20:54.129Z,25.80
2017-07-22T20:23:21.061Z,25.80
2017-07-22T20:25:48.026Z,25.80
2017-07-22T20:28:14.977Z,25.80
2017-07-22T20:30:42.325Z,25.80
2017-07-22T20:33:09.274Z,25.80
2017-07-22T20:35:36.226Z,25.80
2017-07-22T20:38:03.150Z,25.70
2017-07-22T20:40:30.109Z,25.50
2017-07-22T20:42:57.058Z,25.50
2017-07-22T20:45:24.063Z,25.40
2017-07-22T20:47:51.053Z,25.40
2017-07-22T20:50:17.936Z,25.40
2017-07-22T20:52:44.866Z,25.50
2017-07-22T20:55:12.197Z,25.40
2017-07-22T20:57:39.145Z,25.30
2017-07-22T21:00:06.026Z,25.20
2017-07-22T21:02:32.910Z,25.20
2017-07-22T21:04:59.829Z,25.20
2017-07-22T21:07:26.716Z,25.30
2017-07-22T21:09:53.597Z,25.30
2017-07-22T21:12:20.625Z,25.20
2017-07-22T21:14:48.016Z,25.10
2017-07-22T21:17:15.022Z,25.10
2017-07-22T21:19:41.930Z,25.10
2017-07-22T21:22:08.916Z,25.10
2017-07-22T21:24:35.865Z,25.30
2017-07-22T21:27:02.853Z,25.40
2017-07-22T21:29:29.857Z,25.40
2017-07-22T21:31:56.804Z,25.40
2017-07-22T21:34:23.762Z,25.40
2017-07-22T21:36:51.039Z,25.40
2017-07-22T21:39:17.960Z,25.40
2017-07-22T21:41:45.305Z,25.20
2017-07-22T21:44:12.258Z,25.20
2017-07-22T21:46:39.203Z,25.10
2017-07-22T21:49:06.150Z,25.00
2017-07-22T21:51:33.093Z,24.90
2017-07-22T21:54:00.041Z,24.80
2017-07-22T21:56:26.992Z,24.80
2017-07-22T21:58:53.943Z,24.70
2017-07-22T22:01:20.858Z,24.80
2017-07-22T22:03:47.741Z,24.80
2017-07-22T22:06:15.053Z,24.90
2017-07-22T22:08:41.933Z,24.90
2017-07-22T22:11:09.279Z,24.80
2017-07-22T22:13:36.230Z,24.80
2017-07-22T22:16:03.682Z,24.60
2017-07-22T22:18:30.636Z,24.60
2017-07-22T22:20:57.950Z,24.90
2017-07-22T22:23:24.934Z,24.90
2017-07-22T22:25:51.994Z,24.50
2017-07-22T22:28:19.342Z,19.80
2017-07-22T22:30:46.395Z,19.80
2017-07-22T22:33:13.274Z,19.80
2017-07-22T22:35:40.193Z,20.10
2017-07-22T22:38:07.481Z,20.40
2017-07-22T22:40:34.373Z,20.40
2017-07-22T22:43:01.320Z,20.60
2017-07-22T22:45:28.208Z,20.70
2017-07-22T22:47:55.373Z,20.70
2017-07-22T22:50:22.365Z,20.70
2017-07-22T22:52:49.309Z,20.80
2017-07-22T22:55:16.261Z,20.90
2017-07-22T22:57:43.210Z,20.90
2017-07-22T23:00:10.149Z,21.00
2017-07-22T23:02:37.034Z,21.10
2017-07-22T23:05:04.092Z,21.00
2017-07-22T23:07:30.981Z,21.10
2017-07-22T23:09:58.041Z,21.00
2017-07-22T23:12:24.990Z,21.00
2017-07-22T23:14:51.937Z,21.10
2017-07-22T23:17:18.886Z,21.10
2017-07-22T23:19:45.766Z,21.20
2017-07-22T23:22:12.768Z,21.40
2017-07-22T23:24:39.713Z,21.40
2017-07-22T23:27:06.666Z,21.30
2017-07-22T23:29:33.557Z,21.20
2017-07-22T23:32:00.563Z,20.70
2017-07-22T23:34:27.445Z,20.30
2017-07-22T23:36:54.329Z,20.00
2017-07-22T23:39:21.293Z,19.80
2017-07-22T23:41:48.241Z,19.70
2017-07-22T23:44:15.191Z,19.80
2017-07-22T23:46:42.134Z,19.70
2017-07-22T23:49:09.030Z,19.70
2017-07-22T23:51:35.933Z,19.90
2017-07-22T23:54:03.273Z,20.00
2017-07-22T23:56:30.230Z,19.90
2017-07-22T23:58:57.122Z,19.90
